createdAt,value
2022-11-20T00:00:25.805Z,-4.10
2022-11-20T00:03:13.940Z,-3.96
2022-11-20T00:05:41.953Z,-4.05
2022-11-20T00:08:09.198Z,-4.02
2022-11-20T00:10:41.194Z,-3.94
2022-11-20T00:13:08.956Z,-3.92
2022-11-20T00:15:36.395Z,-3.85
2022-11-20T00:18:03.627Z,-3.93
2022-11-20T00:20:31.210Z,-3.77
2022-11-20T00:22:58.425Z,-3.93
2022-11-20T00:25:25.867Z,-3.71
2022-11-20T00:27:53.268Z,-3.94
2022-11-20T00:30:20.781Z,-4.06
2022-11-20T00:32:47.888Z,-3.88
2022-11-20T00:35:15.416Z,-4.10
2022-11-20T00:37:42.631Z,-3.95
2022-11-20T00:40:10.626Z,-3.94
2022-11-20T00:42:37.819Z,-3.96
2022-11-20T00:45:06.101Z,-3.87
2022-11-20T00:47:33.208Z,-3.76
2022-11-20T00:50:00.804Z,-3.72
2022-11-20T00:52:27.970Z,-3.85
2022-11-20T00:54:55.379Z,-3.85
2022-11-20T00:57:22.488Z,-3.90
2022-11-20T00:59:49.990Z,-3.85
2022-11-20T01:02:17.468Z,-3.91
2022-11-20T01:04:44.912Z,-3.91
2022-11-20T01:07:12.180Z,-3.78
2022-11-20T01:09:39.722Z,-3.99
2022-11-20T01:12:07.154Z,-3.96
2022-11-20T01:14:34.575Z,-3.96
2022-11-20T01:17:01.706Z,-3.92
2022-11-20T01:19:29.141Z,-3.93
2022-11-20T01:21:57.354Z,-3.96
2022-11-20T01:24:24.782Z,-3.79
2022-11-20T01:26:52.937Z,-3.91
2022-11-20T01:29:25.740Z,-3.81
2022-11-20T01:31:54.047Z,-3.84
2022-11-20T01:34:23.253Z,-3.82
2022-11-20T01:36:51.217Z,-3.81
2022-11-20T01:39:28.203Z,-3.89
2022-11-20T01:42:15.547Z,-3.66
2022-11-20T01:44:54.201Z,-3.72
2022-11-20T01:47:43.589Z,-3.82
2022-11-20T01:50:11.021Z,-3.91
2022-11-20T01:52:50.941Z,-3.92
2022-11-20T01:55:26.084Z,-3.95
2022-11-20T01:57:53.707Z,-3.92
2022-11-20T02:00:22.522Z,-3.61
2022-11-20T02:02:54.888Z,-3.86
2022-11-20T02:05:28.145Z,-3.79
2022-11-20T02:07:58.825Z,-3.85
2022-11-20T02:10:28.072Z,-3.81
2022-11-20T02:13:13.897Z,-3.76
2022-11-20T02:15:41.884Z,-3.76
2022-11-20T02:18:11.038Z,-3.80
2022-11-20T02:20:40.269Z,-3.69
2022-11-20T02:23:17.551Z,-3.88
2022-11-20T02:25:48.377Z,-3.88
2022-11-20T02:28:16.092Z,-3.84
2022-11-20T02:30:43.727Z,-3.86
2022-11-20T02:33:10.876Z,-3.78
2022-11-20T02:35:42.736Z,-3.84
2022-11-20T02:38:10.121Z,-3.79
2022-11-20T02:40:37.610Z,-3.78
2022-11-20T02:43:04.896Z,-3.71
2022-11-20T02:45:32.752Z,-3.81
2022-11-20T02:47:59.922Z,-3.75
2022-11-20T02:50:27.614Z,-3.78
2022-11-20T02:52:54.762Z,-3.71
2022-11-20T02:55:22.279Z,-3.84
2022-11-20T02:57:49.510Z,-3.77
2022-11-20T03:00:17.107Z,-3.79
2022-11-20T03:02:44.313Z,-3.95
2022-11-20T03:05:11.719Z,-3.87
2022-11-20T03:07:38.941Z,-3.77
2022-11-20T03:10:07.058Z,-3.57
2022-11-20T03:12:34.237Z,-3.80
2022-11-20T03:15:01.766Z,-3.91
2022-11-20T03:17:30.444Z,-3.83
2022-11-20T03:19:57.941Z,-3.89
2022-11-20T03:22:25.080Z,-3.94
2022-11-20T03:24:53.085Z,-3.96
2022-11-20T03:27:20.277Z,-4.03
2022-11-20T03:29:47.701Z,-3.95
2022-11-20T03:32:15.033Z,-3.92
2022-11-20T03:34:42.468Z,-3.93
2022-11-20T03:37:09.595Z,-3.81
2022-11-20T03:39:37.011Z,-3.82
2022-11-20T03:42:24.087Z,-3.90
2022-11-20T03:44:51.499Z,-3.93
2022-11-20T03:47:18.608Z,-3.94
2022-11-20T03:49:46.024Z,-3.79
2022-11-20T03:52:13.208Z,-3.83
2022-11-20T03:54:40.678Z,-3.78
2022-11-20T03:57:07.855Z,-3.76
2022-11-20T03:59:35.282Z,-3.65
2022-11-20T04:02:02.474Z,-3.57
2022-11-20T04:04:30.102Z,-3.50
2022-11-20T04:06:57.315Z,-3.65
2022-11-20T04:09:24.856Z,-3.76
2022-11-20T04:11:52.081Z,-3.83
2022-11-20T04:14:19.534Z,-3.58
2022-11-20T04:16:46.716Z,-3.65
2022-11-20T04:19:16.528Z,-3.88
2022-11-20T04:21:45.066Z,-3.92
2022-11-20T04:24:12.771Z,-3.95
2022-11-20T04:26:40.261Z,-3.93
2022-11-20T04:29:08.078Z,-3.97
2022-11-20T04:31:35.862Z,-3.86
2022-11-20T04:34:06.175Z,-4.09
2022-11-20T04:36:34.726Z,-4.08
2022-11-20T04:39:06.081Z,-4.07
2022-11-20T04:41:35.569Z,-4.17
2022-11-20T04:44:04.710Z,-4.25
2022-11-20T04:46:33.634Z,-4.38
2022-11-20T04:49:01.215Z,-4.41
2022-11-20T04:51:28.545Z,-4.43
2022-11-20T04:53:56.384Z,-4.50
2022-11-20T04:56:23.845Z,-4.56
2022-11-20T04:58:51.654Z,-4.65
2022-11-20T05:01:21.650Z,-4.68
2022-11-20T05:03:49.864Z,-4.66
2022-11-20T05:06:19.309Z,-4.67
2022-11-20T05:08:46.832Z,-4.66
2022-11-20T05:11:19.923Z,-4.86
2022-11-20T05:13:48.374Z,-4.85
2022-11-20T05:16:18.784Z,-4.83
2022-11-20T05:18:46.606Z,-5.05
2022-11-20T05:21:14.871Z,-5.06
2022-11-20T05:23:43.378Z,-5.01
2022-11-20T05:26:18.905Z,-5.07
2022-11-20T05:28:46.767Z,-5.15
2022-11-20T05:31:20.755Z,-5.27
2022-11-20T05:33:51.758Z,-5.26
2022-11-20T05:36:19.164Z,-5.33
2022-11-20T05:38:50.336Z,-5.19
2022-11-20T05:41:20.150Z,-5.27
2022-11-20T05:43:48.940Z,-5.29
2022-11-20T05:46:20.339Z,-5.41
2022-11-20T05:48:49.835Z,-5.59
2022-11-20T05:51:19.024Z,-5.45
2022-11-20T05:53:48.591Z,-5.12
2022-11-20T05:56:19.372Z,-5.23
2022-11-20T05:58:47.783Z,-5.29
2022-11-20T06:01:23.847Z,-5.38
2022-11-20T06:03:52.299Z,-5.47
2022-11-20T06:06:20.791Z,-5.49
2022-11-20T06:08:49.193Z,-5.50
2022-11-20T06:11:17.729Z,-5.45
2022-11-20T06:13:45.826Z,-5.39
2022-11-20T06:16:15.251Z,-5.48
2022-11-20T06:18:43.057Z,-5.49
2022-11-20T06:21:18.259Z,-5.47
2022-11-20T06:23:46.483Z,-5.42
2022-11-20T06:26:16.113Z,-5.41
2022-11-20T06:28:43.952Z,-5.42
2022-11-20T06:31:14.441Z,-5.34
2022-11-20T06:33:42.876Z,-4.71
2022-11-20T06:36:11.675Z,-4.73
2022-11-20T06:38:40.342Z,-4.46
2022-11-20T06:41:11.519Z,-4.24
2022-11-20T06:43:38.966Z,-4.29
2022-11-20T06:46:06.135Z,-4.38
2022-11-20T06:48:33.891Z,-4.72
2022-11-20T06:51:03.563Z,-4.53
2022-11-20T06:53:30.997Z,-4.52
2022-11-20T06:56:01.093Z,-4.11
2022-11-20T06:58:30.714Z,-3.97
2022-11-20T07:01:12.402Z,-4.00
2022-11-20T07:03:40.370Z,-3.78
2022-11-20T07:06:08.397Z,-3.71
2022-11-20T07:08:35.926Z,-3.48
2022-11-20T07:11:06.518Z,-3.45
2022-11-20T07:13:34.656Z,-3.42
2022-11-20T07:16:03.823Z,-3.53
2022-11-20T07:18:31.432Z,-3.60
2022-11-20T07:21:02.790Z,-3.50
2022-11-20T07:23:30.498Z,-3.52
2022-11-20T07:25:57.633Z,-3.46
2022-11-20T07:28:25.097Z,-3.41
2022-11-20T07:30:53.501Z,-3.60
2022-11-20T07:33:21.378Z,-3.60
2022-11-20T07:35:48.609Z,-3.53
2022-11-20T07:38:16.081Z,-3.62
2022-11-20T07:40:43.411Z,-3.58
2022-11-20T07:43:10.949Z,-3.45
2022-11-20T07:45:38.217Z,-3.35
2022-11-20T07:48:05.789Z,-3.37
2022-11-20T07:50:32.914Z,-3.38
2022-11-20T07:53:05.569Z,-3.36
2022-11-20T07:55:33.754Z,-3.23
2022-11-20T07:58:01.331Z,-3.22
2022-11-20T08:00:28.657Z,-3.19
2022-11-20T08:02:56.177Z,-3.03
2022-11-20T08:05:23.783Z,-2.95
2022-11-20T08:07:51.232Z,-2.90
2022-11-20T08:10:18.575Z,-2.90
2022-11-20T08:13:10.154Z,-2.75
2022-11-20T08:15:39.497Z,-2.66
2022-11-20T08:21:03.949Z,-2.55
2022-11-20T08:23:31.946Z,-2.52
2022-11-20T08:25:59.085Z,-2.59
2022-11-20T08:28:26.554Z,-2.22
2022-11-20T08:30:59.504Z,-2.32
2022-11-20T08:33:27.160Z,-2.43
2022-11-20T08:35:54.296Z,-2.23
2022-11-20T08:38:21.705Z,-2.15
2022-11-20T08:41:08.974Z,-2.32
2022-11-20T08:43:36.488Z,-2.69
2022-11-20T08:46:03.629Z,-2.91
2022-11-20T08:48:31.064Z,-2.89
2022-11-20T08:51:00.548Z,-3.29
2022-11-20T08:53:28.761Z,-3.11
2022-11-20T08:55:57.980Z,-2.90
2022-11-20T08:58:26.660Z,-2.76
2022-11-20T09:00:54.177Z,-2.55
2022-11-20T09:03:21.698Z,-2.64
2022-11-20T09:05:48.866Z,-2.35
2022-11-20T09:08:16.338Z,-2.75
2022-11-20T09:10:43.554Z,-2.72
2022-11-20T09:13:11.118Z,-3.47
2022-11-20T09:15:38.303Z,-3.20
2022-11-20T09:18:06.038Z,-2.74
2022-11-20T09:20:33.173Z,-2.69
2022-11-20T09:23:00.623Z,-2.51
2022-11-20T09:25:27.976Z,-2.37
2022-11-20T09:27:59.597Z,-2.50
2022-11-20T09:30:27.994Z,-2.49
2022-11-20T09:32:55.852Z,-2.53
2022-11-20T09:35:23.341Z,-2.67
2022-11-20T09:37:50.896Z,-2.64
2022-11-20T09:40:27.470Z,-2.68
2022-11-20T09:43:20.246Z,-2.53
2022-11-20T09:46:08.568Z,-3.30
2022-11-20T09:48:54.212Z,-3.17
2022-11-20T09:51:34.098Z,-2.72
2022-11-20T09:54:19.091Z,-2.55
2022-11-20T09:56:54.722Z,-2.76
2022-11-20T09:59:34.882Z,-2.57
2022-11-20T10:02:07.503Z,-2.41
2022-11-20T10:04:39.668Z,-2.19
2022-11-20T10:07:36.011Z,-1.87
2022-11-20T10:10:03.726Z,-2.29
2022-11-20T10:12:56.893Z,-2.11
2022-11-20T10:15:34.935Z,-1.85
2022-11-20T10:18:28.463Z,-1.94
2022-11-20T10:21:14.381Z,-2.10
2022-11-20T10:23:57.525Z,-2.50
2022-11-20T10:26:36.824Z,-2.82
2022-11-20T10:29:15.642Z,-2.70
2022-11-20T10:31:51.869Z,-2.39
2022-11-20T10:34:44.987Z,-2.28
2022-11-20T10:37:27.330Z,-2.29
2022-11-20T10:40:01.745Z,-2.54
2022-11-20T10:42:45.987Z,-2.51
2022-11-20T10:45:25.407Z,-2.38
2022-11-20T10:48:09.063Z,-2.70
2022-11-20T10:50:50.810Z,-2.32
2022-11-20T10:53:36.517Z,-2.36
2022-11-20T10:56:18.796Z,-2.08
2022-11-20T10:59:17.765Z,-1.89
2022-11-20T11:01:45.039Z,-1.83
2022-11-20T11:04:34.047Z,-1.31
2022-11-20T11:07:19.001Z,-1.03
2022-11-20T11:10:32.985Z,-1.13
2022-11-20T11:13:00.165Z,-1.40
2022-11-20T11:15:38.301Z,-1.53
2022-11-20T11:18:06.163Z,-1.64
2022-11-20T11:20:33.613Z,-2.02
2022-11-20T11:23:01.276Z,-2.33
2022-11-20T11:25:36.753Z,-2.37
2022-11-20T11:28:20.777Z,-2.51
2022-11-20T11:30:50.337Z,-2.47
2022-11-20T11:33:35.870Z,-2.72
2022-11-20T11:36:19.194Z,-2.53
2022-11-20T11:38:46.733Z,-2.84
2022-11-20T11:41:19.897Z,-2.34
2022-11-20T11:44:19.358Z,-2.24
2022-11-20T11:46:56.296Z,-2.32
2022-11-20T11:49:23.681Z,-2.40
2022-11-20T11:52:11.488Z,-2.27
2022-11-20T11:54:55.442Z,-2.60
2022-11-20T11:57:38.069Z,-2.78
2022-11-20T12:00:15.491Z,-2.73
2022-11-20T12:02:45.906Z,-2.84
2022-11-20T12:05:41.220Z,-2.66
2022-11-20T12:08:40.116Z,-2.78
2022-11-20T12:11:31.004Z,-2.75
2022-11-20T12:14:20.890Z,-2.82
2022-11-20T12:16:48.069Z,-2.37
2022-11-20T12:19:15.883Z,-2.32
2022-11-20T12:22:08.720Z,-2.54
2022-11-20T12:24:53.320Z,-2.63
2022-11-20T12:27:29.564Z,-2.50
2022-11-20T12:30:09.267Z,-2.51
2022-11-20T12:33:13.256Z,-2.53
2022-11-20T12:36:28.602Z,-2.58
2022-11-20T12:39:14.045Z,-2.62
2022-11-20T12:42:30.131Z,-2.30
2022-11-20T12:45:24.120Z,-2.45
2022-11-20T12:48:10.156Z,-2.58
2022-11-20T12:51:14.625Z,-2.31
2022-11-20T12:53:54.965Z,-2.27
2022-11-20T12:56:29.922Z,-2.55
2022-11-20T12:59:19.391Z,-2.63
2022-11-20T13:01:53.871Z,-2.69
2022-11-20T13:04:48.548Z,-2.65
2022-11-20T13:07:17.399Z,-2.47
2022-11-20T13:09:47.821Z,-2.24
2022-11-20T13:12:31.935Z,-2.60
2022-11-20T13:15:12.850Z,-2.65
2022-11-20T13:17:43.752Z,-2.46
2022-11-20T13:20:18.218Z,-2.31
2022-11-20T13:22:46.977Z,-2.41
2022-11-20T13:25:28.385Z,-2.22
2022-11-20T13:27:58.058Z,-2.44
2022-11-20T13:30:30.283Z,-2.57
2022-11-20T13:33:00.865Z,-2.65
2022-11-20T13:35:56.131Z,-2.61
2022-11-20T13:38:23.305Z,-2.67
2022-11-20T13:40:57.158Z,-2.70
2022-11-20T13:43:38.305Z,-2.58
2022-11-20T13:46:08.341Z,-2.63
2022-11-20T13:48:43.579Z,-2.50
2022-11-20T13:51:33.278Z,-2.57
2022-11-20T13:54:27.470Z,-2.48
2022-11-20T13:57:13.244Z,-2.64
2022-11-20T13:59:55.580Z,-2.64
2022-11-20T14:02:26.052Z,-2.69
2022-11-20T14:04:55.605Z,-2.65
2022-11-20T14:07:36.101Z,-2.67
2022-11-20T14:10:03.926Z,-2.74
2022-11-20T14:12:34.139Z,-2.71
2022-11-20T14:15:01.325Z,-2.64
2022-11-20T14:17:34.589Z,-2.57
2022-11-20T14:20:07.428Z,-2.64
2022-11-20T14:22:34.906Z,-2.66
2022-11-20T14:25:13.209Z,-2.65
2022-11-20T14:27:43.243Z,-2.77
2022-11-20T14:30:22.173Z,-2.67
2022-11-20T14:32:50.872Z,-2.70
2022-11-20T14:35:30.251Z,-2.77
2022-11-20T14:37:58.314Z,-2.50
2022-11-20T14:40:37.928Z,-2.42
2022-11-20T14:43:25.225Z,-2.58
2022-11-20T14:46:04.951Z,-2.61
2022-11-20T14:48:41.962Z,-2.67
2022-11-20T14:51:24.075Z,-2.62
2022-11-20T14:53:52.105Z,-2.58
2022-11-20T14:56:25.160Z,-2.62
2022-11-20T14:58:59.080Z,-2.59
2022-11-20T15:01:30.848Z,-2.75
2022-11-20T15:04:02.665Z,-2.79
2022-11-20T15:06:30.606Z,-2.84
2022-11-20T15:08:58.555Z,-2.69
2022-11-20T15:11:36.809Z,-2.81
2022-11-20T15:14:07.721Z,-2.71
2022-11-20T15:16:35.033Z,-2.75
2022-11-20T15:19:03.903Z,-2.74
2022-11-20T15:21:31.186Z,-2.76
2022-11-20T15:23:59.424Z,-2.77
2022-11-20T15:26:28.390Z,-2.81
2022-11-20T15:28:56.174Z,-2.74
2022-11-20T15:31:24.765Z,-2.66
2022-11-20T15:33:52.319Z,-2.58
2022-11-20T15:36:19.611Z,-2.84
2022-11-20T15:38:47.214Z,-2.74
2022-11-20T15:41:14.585Z,-2.82
2022-11-20T15:43:42.092Z,-2.77
2022-11-20T15:46:18.207Z,-2.85
2022-11-20T15:48:49.780Z,-2.73
2022-11-20T15:51:27.386Z,-2.76
2022-11-20T15:53:56.198Z,-2.58
2022-11-20T15:56:23.509Z,-2.75
2022-11-20T15:58:50.970Z,-2.85
2022-11-20T16:01:21.781Z,-2.81
2022-11-20T16:03:49.928Z,-2.96
2022-11-20T16:06:20.124Z,-2.89
2022-11-20T16:08:47.636Z,-2.91
2022-11-20T16:11:16.501Z,-2.91
2022-11-20T16:14:03.001Z,-2.87
2022-11-20T16:16:37.400Z,-2.93
2022-11-20T16:19:05.503Z,-2.90
2022-11-20T16:21:32.989Z,-3.02
2022-11-20T16:24:06.409Z,-2.89
2022-11-20T16:26:33.798Z,-2.92
2022-11-20T16:29:02.236Z,-2.97
2022-11-20T16:31:29.713Z,-2.78
2022-11-20T16:34:00.579Z,-2.87
2022-11-20T16:36:29.608Z,-2.91
2022-11-20T16:38:59.566Z,-3.00
2022-11-20T16:41:28.659Z,-3.05
2022-11-20T16:43:58.300Z,-3.09
2022-11-20T16:46:30.971Z,-3.10
2022-11-20T16:48:59.494Z,-2.91
2022-11-20T16:51:28.917Z,-3.10
2022-11-20T16:53:57.234Z,-3.13
2022-11-20T16:56:26.922Z,-3.17
2022-11-20T16:58:57.362Z,-3.19
2022-11-20T17:01:26.462Z,-3.16
2022-11-20T17:03:59.462Z,-3.17
2022-11-20T17:06:29.112Z,-3.13
2022-11-20T17:08:57.971Z,-3.13
2022-11-20T17:11:26.868Z,-3.09
2022-11-20T17:14:00.753Z,-3.01
2022-11-20T17:16:28.522Z,-3.12
2022-11-20T17:19:02.513Z,-3.16
2022-11-20T17:21:31.592Z,-2.84
2022-11-20T17:24:04.773Z,-3.06
2022-11-20T17:26:32.665Z,-2.93
2022-11-20T17:29:03.080Z,-3.00
2022-11-20T17:31:31.795Z,-2.94
2022-11-20T17:34:00.449Z,-3.11
2022-11-20T17:36:29.174Z,-3.07
2022-11-20T17:38:56.654Z,-3.05
2022-11-20T17:41:26.104Z,-3.01
2022-11-20T17:43:58.985Z,-3.11
2022-11-20T17:46:28.907Z,-2.94
2022-11-20T17:48:56.642Z,-2.98
2022-11-20T17:51:26.507Z,-3.00
2022-11-20T17:53:57.152Z,-2.96
2022-11-20T17:56:42.985Z,-2.85
2022-11-20T17:59:12.397Z,-2.75
2022-11-20T18:01:42.989Z,-3.13
2022-11-20T18:04:11.524Z,-3.03
2022-11-20T18:06:38.878Z,-3.29
2022-11-20T18:09:07.114Z,-3.13
2022-11-20T18:11:37.201Z,-3.09
2022-11-20T18:14:26.102Z,-3.13
2022-11-20T18:16:58.792Z,-3.23
2022-11-20T18:19:32.455Z,-3.08
2022-11-20T18:22:01.980Z,-3.16
2022-11-20T18:24:29.866Z,-3.15
2022-11-20T18:26:58.438Z,-3.20
2022-11-20T18:29:27.036Z,-3.15
2022-11-20T18:31:54.673Z,-3.18
2022-11-20T18:34:22.725Z,-3.13
2022-11-20T18:36:51.398Z,-3.19
2022-11-20T18:39:19.033Z,-3.14
2022-11-20T18:42:04.777Z,-3.15
2022-11-20T18:44:51.491Z,-3.16
2022-11-20T18:47:31.061Z,-3.19
2022-11-20T18:50:01.120Z,-3.06
2022-11-20T18:52:34.077Z,-3.03
2022-11-20T18:55:02.911Z,-3.09
2022-11-20T18:57:31.825Z,-3.20
2022-11-20T19:00:03.509Z,-3.18
2022-11-20T19:02:39.422Z,-3.14
2022-11-20T19:05:13.523Z,-3.22
2022-11-20T19:07:41.120Z,-3.22
2022-11-20T19:10:09.277Z,-3.33
2022-11-20T19:12:36.527Z,-3.19
2022-11-20T19:15:04.909Z,-3.21
2022-11-20T19:17:33.718Z,-3.24
2022-11-20T19:20:01.380Z,-3.19
2022-11-20T19:22:28.632Z,-3.31
2022-11-20T19:24:56.107Z,-3.31
2022-11-20T19:27:23.405Z,-3.30
2022-11-20T19:29:50.930Z,-3.35
2022-11-20T19:32:18.070Z,-3.42
2022-11-20T19:34:45.522Z,-3.32
2022-11-20T19:37:13.221Z,-3.31
2022-11-20T19:39:40.836Z,-3.36
2022-11-20T19:42:07.998Z,-3.37
2022-11-20T19:44:35.964Z,-3.20
2022-11-20T19:47:08.979Z,-2.95
2022-11-20T19:49:38.284Z,-3.15
2022-11-20T19:52:05.663Z,-2.95
2022-11-20T19:54:33.251Z,-2.94
2022-11-20T19:57:00.542Z,-2.85
2022-11-20T19:59:28.441Z,-2.82
2022-11-20T20:01:55.658Z,-2.81
2022-11-20T20:04:23.195Z,-2.69
2022-11-20T20:06:50.831Z,-2.72
2022-11-20T20:09:18.707Z,-2.89
2022-11-20T20:11:47.160Z,-2.81
2022-11-20T20:14:16.578Z,-2.80
2022-11-20T20:16:43.991Z,-2.82
2022-11-20T20:19:13.622Z,-2.48
2022-11-20T20:21:41.566Z,-2.31
2022-11-20T20:24:10.648Z,-2.42
2022-11-20T20:26:38.195Z,-2.31
2022-11-20T20:29:05.855Z,-2.34
2022-11-20T20:31:34.060Z,-2.58
2022-11-20T20:34:03.514Z,-2.58
2022-11-20T20:36:30.989Z,-2.79
2022-11-20T20:39:05.157Z,-2.69
2022-11-20T20:41:32.848Z,-2.64
2022-11-20T20:44:20.480Z,-2.44
2022-11-20T20:46:47.710Z,-2.56
2022-11-20T20:49:15.174Z,-2.57
2022-11-20T20:51:42.374Z,-2.57
2022-11-20T20:54:09.922Z,-2.54
2022-11-20T20:56:37.080Z,-2.42
2022-11-20T20:59:04.608Z,-2.39
2022-11-20T21:01:31.919Z,-2.38
2022-11-20T21:03:59.623Z,-2.41
2022-11-20T21:06:26.861Z,-2.42
2022-11-20T21:08:56.053Z,-2.42
2022-11-20T21:11:23.406Z,-2.46
2022-11-20T21:13:50.964Z,-2.41
2022-11-20T21:16:20.709Z,-2.47
2022-11-20T21:18:49.215Z,-2.40
2022-11-20T21:21:36.152Z,-2.54
2022-11-20T21:24:04.421Z,-2.45
2022-11-20T21:26:31.643Z,-2.55
2022-11-20T21:28:59.185Z,-2.50
2022-11-20T21:31:27.138Z,-2.32
2022-11-20T21:33:56.668Z,-2.35
2022-11-20T21:36:26.646Z,-2.29
2022-11-20T21:38:55.491Z,-2.28
2022-11-20T21:41:24.478Z,-2.46
2022-11-20T21:44:16.310Z,-2.42
2022-11-20T21:46:45.144Z,-2.35
2022-11-20T21:49:12.709Z,-2.32
2022-11-20T21:51:40.564Z,-2.18
2022-11-20T21:54:09.539Z,-2.21
2022-11-20T21:56:37.008Z,-1.92
2022-11-20T21:59:04.306Z,-1.92
2022-11-20T22:01:32.109Z,-2.07
2022-11-20T22:04:01.644Z,-2.04
2022-11-20T22:06:34.103Z,-2.03
2022-11-20T22:09:04.405Z,-2.17
2022-11-20T22:11:31.915Z,-2.23
2022-11-20T22:14:18.057Z,-2.06
2022-11-20T22:16:45.517Z,-2.08
2022-11-20T22:19:16.256Z,-2.11
2022-11-20T22:21:43.790Z,-1.93
2022-11-20T22:24:16.057Z,-2.07
2022-11-20T22:26:44.274Z,-1.96
2022-11-20T22:29:16.600Z,-2.12
2022-11-20T22:31:44.127Z,-2.18
2022-11-20T22:34:12.701Z,-1.93
2022-11-20T22:36:40.950Z,-1.74
2022-11-20T22:39:08.160Z,-1.69
2022-11-20T22:41:35.684Z,-1.78
2022-11-20T22:44:05.978Z,-1.78
2022-11-20T22:46:35.362Z,-1.78
2022-11-20T22:49:05.887Z,-1.87
2022-11-20T22:51:39.261Z,-1.66
2022-11-20T22:54:07.584Z,-1.59
2022-11-20T22:56:35.220Z,-1.81
2022-11-20T22:59:02.720Z,-1.71
2022-11-20T23:01:32.323Z,-1.68
2022-11-20T23:04:01.836Z,-1.93
2022-11-20T23:06:30.064Z,-1.79
2022-11-20T23:08:57.625Z,-1.81
2022-11-20T23:11:27.560Z,-1.93
2022-11-20T23:14:03.819Z,-2.05
2022-11-20T23:16:32.428Z,-2.15
2022-11-20T23:19:02.609Z,-2.09
2022-11-20T23:21:30.124Z,-2.20
2022-11-20T23:23:58.573Z,-2.35
2022-11-20T23:26:32.307Z,-2.31
2022-11-20T23:29:00.598Z,-2.00
2022-11-20T23:31:30.160Z,-2.20
2022-11-20T23:33:58.828Z,-2.38
2022-11-20T23:36:26.431Z,-2.32
2022-11-20T23:38:53.921Z,-2.29
2022-11-20T23:41:21.104Z,-2.09
2022-11-20T23:43:48.550Z,-1.88
2022-11-20T23:46:16.886Z,-1.99
2022-11-20T23:48:45.537Z,-2.05
2022-11-20T23:51:13.521Z,-1.84
2022-11-20T23:53:41.000Z,-1.98
2022-11-20T23:56:08.592Z,-2.15
2022-11-20T23:58:38.134Z,-1.97
